createdAt,value
2022-07-26T00:00:37.693Z,95.90
2022-07-26T00:03:07.979Z,96.30
2022-07-26T00:05:39.046Z,96.60
2022-07-26T00:08:13.367Z,96.60
2022-07-26T00:10:51.658Z,96.40
2022-07-26T00:13:24.245Z,96.70
2022-07-26T00:15:58.452Z,96.90
2022-07-26T00:18:29.048Z,97.40
2022-07-26T00:20:59.228Z,97.70
2022-07-26T00:23:31.061Z,97.70
2022-07-26T00:26:03.777Z,97.70
2022-07-26T00:28:34.183Z,97.90
2022-07-26T00:31:04.552Z,98.30
2022-07-26T00:33:34.712Z,98.00
2022-07-26T00:36:04.851Z,98.00
2022-07-26T00:38:35.085Z,98.20
2022-07-26T00:41:09.435Z,98.50
2022-07-26T00:43:39.906Z,98.10
2022-07-26T00:46:11.401Z,98.00
2022-07-26T00:48:41.547Z,97.80
2022-07-26T00:51:12.115Z,97.50
2022-07-26T00:53:42.126Z,97.90
2022-07-26T00:56:17.391Z,98.10
2022-07-26T00:58:47.859Z,98.00
2022-07-26T01:01:18.074Z,97.80
2022-07-26T01:03:48.658Z,98.30
2022-07-26T01:06:18.942Z,98.00
2022-07-26T01:08:51.387Z,97.90
2022-07-26T01:11:24.628Z,98.30
2022-07-26T01:13:55.273Z,98.50
2022-07-26T01:16:25.966Z,98.50
2022-07-26T01:18:56.151Z,98.20
2022-07-26T01:21:32.418Z,98.40
2022-07-26T01:24:02.724Z,98.50
2022-07-26T01:26:32.765Z,98.80
2022-07-26T01:29:02.992Z,99.10
2022-07-26T01:31:33.317Z,99.50
2022-07-26T01:34:03.403Z,99.90
2022-07-26T01:36:36.331Z,99.90
2022-07-26T01:39:10.183Z,99.90
2022-07-26T01:41:40.331Z,99.90
2022-07-26T01:44:11.056Z,99.90
2022-07-26T01:46:41.539Z,99.90
2022-07-26T01:49:11.806Z,99.90
2022-07-26T01:51:44.581Z,99.90
2022-07-26T01:54:16.090Z,99.90
2022-07-26T01:56:52.828Z,99.90
2022-07-26T01:59:23.181Z,99.90
2022-07-26T02:01:53.279Z,99.90
2022-07-26T02:04:35.858Z,99.90
2022-07-26T02:07:10.238Z,99.90
2022-07-26T02:09:43.371Z,99.90
2022-07-26T02:12:13.502Z,99.90
2022-07-26T02:14:44.075Z,99.90
2022-07-26T02:17:14.301Z,99.90
2022-07-26T02:19:44.641Z,99.90
2022-07-26T02:22:17.685Z,99.90
2022-07-26T02:24:47.779Z,99.90
2022-07-26T02:27:18.186Z,99.90
2022-07-26T02:29:48.463Z,99.90
2022-07-26T02:32:18.491Z,99.90
2022-07-26T02:34:48.623Z,99.90
2022-07-26T02:37:21.571Z,99.90
2022-07-26T02:39:51.671Z,99.90
2022-07-26T02:42:21.809Z,99.90
2022-07-26T02:44:51.945Z,99.90
2022-07-26T02:47:21.970Z,99.90
2022-07-26T02:49:52.107Z,99.90
2022-07-26T02:52:24.811Z,99.90
2022-07-26T02:54:54.852Z,99.90
2022-07-26T02:57:24.860Z,99.90
2022-07-26T02:59:54.910Z,99.90
2022-07-26T03:02:25.199Z,99.90
2022-07-26T03:04:55.262Z,99.90
2022-07-26T03:07:27.906Z,99.90
2022-07-26T03:09:58.302Z,99.90
2022-07-26T03:12:29.016Z,99.90
2022-07-26T03:14:59.009Z,99.90
2022-07-26T03:17:29.690Z,99.90
2022-07-26T03:20:03.062Z,99.90
2022-07-26T03:22:35.872Z,99.90
2022-07-26T03:25:06.697Z,99.90
2022-07-26T03:27:37.783Z,99.90
2022-07-26T03:30:09.771Z,99.90
2022-07-26T03:32:39.897Z,99.90
2022-07-26T03:35:11.721Z,99.90
2022-07-26T03:37:46.245Z,99.90
2022-07-26T03:40:17.974Z,99.90
2022-07-26T03:42:48.683Z,99.90
2022-07-26T03:45:19.350Z,99.90
2022-07-26T03:47:49.494Z,99.90
2022-07-26T03:50:19.557Z,99.90
2022-07-26T03:52:52.420Z,99.90
2022-07-26T03:55:35.170Z,99.90
2022-07-26T03:58:05.372Z,99.90
2022-07-26T04:00:35.602Z,99.90
2022-07-26T04:03:05.610Z,99.90
2022-07-26T04:05:36.083Z,99.90
2022-07-26T04:08:09.096Z,99.90
2022-07-26T04:10:39.104Z,99.90
2022-07-26T04:13:09.145Z,99.90
2022-07-26T04:15:39.234Z,99.90
2022-07-26T04:18:09.414Z,99.90
2022-07-26T04:20:39.629Z,99.90
2022-07-26T04:23:12.498Z,99.90
2022-07-26T04:25:43.616Z,99.90
2022-07-26T04:28:15.007Z,99.90
2022-07-26T04:30:45.549Z,99.90
2022-07-26T04:33:15.623Z,99.90
2022-07-26T04:35:45.699Z,99.90
2022-07-26T04:38:18.658Z,99.90
2022-07-26T04:40:48.994Z,99.90
2022-07-26T04:43:19.026Z,99.90
2022-07-26T04:45:50.111Z,99.90
2022-07-26T04:48:21.041Z,99.90
2022-07-26T04:50:51.297Z,99.90
2022-07-26T04:53:23.947Z,99.90
2022-07-26T04:55:53.939Z,99.90
2022-07-26T04:58:23.971Z,99.90
2022-07-26T05:01:09.558Z,99.90
2022-07-26T05:03:40.747Z,99.90
2022-07-26T05:06:11.316Z,99.90
2022-07-26T05:08:45.731Z,99.90
2022-07-26T05:11:15.864Z,99.90
2022-07-26T05:13:45.866Z,99.90
2022-07-26T05:16:15.856Z,99.90
2022-07-26T05:18:49.230Z,99.90
2022-07-26T05:21:21.218Z,99.90
2022-07-26T05:23:54.189Z,99.90
2022-07-26T05:26:24.392Z,99.90
2022-07-26T05:28:54.685Z,99.90
2022-07-26T05:31:24.910Z,99.90
2022-07-26T05:33:55.247Z,99.90
2022-07-26T05:36:25.597Z,99.90
2022-07-26T05:38:58.507Z,99.90
2022-07-26T05:41:28.695Z,99.90
2022-07-26T05:43:59.054Z,99.90
2022-07-26T05:46:29.437Z,99.90
2022-07-26T05:48:59.764Z,99.90
2022-07-26T05:51:30.342Z,99.90
2022-07-26T05:54:03.156Z,99.90
2022-07-26T05:56:33.510Z,99.90
2022-07-26T05:59:03.837Z,99.90
2022-07-26T06:01:35.050Z,99.90
2022-07-26T06:04:07.183Z,99.90
2022-07-26T06:06:37.577Z,99.90
2022-07-26T06:09:10.207Z,99.90
2022-07-26T06:11:40.425Z,99.90
2022-07-26T06:14:10.639Z,99.90
2022-07-26T06:16:40.967Z,99.90
2022-07-26T06:19:11.088Z,99.90
2022-07-26T06:21:42.206Z,99.90
2022-07-26T06:24:15.196Z,99.90
2022-07-26T06:26:46.632Z,99.90
2022-07-26T06:29:16.717Z,99.90
2022-07-26T06:31:46.794Z,99.90
2022-07-26T06:34:16.949Z,99.90
2022-07-26T06:36:47.006Z,99.90
2022-07-26T06:39:19.626Z,99.90
2022-07-26T06:41:49.721Z,99.90
2022-07-26T06:46:55.576Z,99.90
2022-07-26T06:49:25.880Z,99.90
2022-07-26T06:51:57.939Z,99.90
2022-07-26T06:54:30.691Z,99.90
2022-07-26T07:04:12.625Z,99.90
2022-07-26T07:06:42.739Z,99.90
2022-07-26T07:09:15.093Z,99.50
2022-07-26T07:11:51.797Z,98.00
2022-07-26T07:14:26.462Z,97.70
2022-07-26T07:16:56.650Z,97.40
2022-07-26T07:19:27.413Z,97.00
2022-07-26T07:21:57.713Z,97.30
2022-07-26T07:24:27.772Z,97.10
2022-07-26T07:27:01.424Z,97.30
2022-07-26T07:29:31.418Z,96.50
2022-07-26T07:32:03.566Z,96.10
2022-07-26T07:34:33.778Z,96.20
2022-07-26T07:37:04.653Z,96.00
2022-07-26T07:39:38.720Z,95.70
2022-07-26T07:42:11.803Z,95.30
2022-07-26T07:44:41.803Z,94.50
2022-07-26T07:47:12.179Z,94.30
2022-07-26T07:49:42.341Z,93.50
2022-07-26T07:52:12.338Z,93.50
2022-07-26T07:54:42.393Z,93.50
2022-07-26T07:57:15.012Z,93.90
2022-07-26T07:59:45.382Z,93.70
2022-07-26T08:02:15.891Z,94.10
2022-07-26T08:04:46.007Z,93.00
2022-07-26T08:07:16.358Z,92.20
2022-07-26T08:09:46.854Z,92.60
2022-07-26T08:12:19.929Z,93.10
2022-07-26T08:14:50.866Z,92.80
2022-07-26T08:17:20.955Z,92.80
2022-07-26T08:19:55.734Z,91.60
2022-07-26T08:22:29.872Z,90.30
2022-07-26T08:25:00.495Z,90.60
2022-07-26T08:27:40.449Z,90.10
2022-07-26T08:30:13.049Z,88.40
2022-07-26T08:32:43.142Z,86.80
2022-07-26T08:35:18.072Z,85.60
2022-07-26T08:37:50.169Z,83.80
2022-07-26T08:40:20.362Z,83.30
2022-07-26T08:42:56.833Z,83.20
2022-07-26T08:45:30.484Z,82.60
2022-07-26T08:48:18.928Z,80.00
2022-07-26T08:50:50.576Z,79.80
2022-07-26T08:53:20.568Z,79.10
2022-07-26T08:56:06.445Z,78.60
2022-07-26T08:58:40.862Z,78.10
2022-07-26T09:01:15.142Z,78.50
2022-07-26T09:03:47.826Z,78.90
2022-07-26T09:06:20.300Z,78.50
2022-07-26T09:08:55.397Z,79.00
2022-07-26T09:11:35.549Z,77.90
2022-07-26T09:14:09.293Z,78.10
2022-07-26T09:16:40.279Z,75.60
2022-07-26T09:19:22.387Z,75.90
2022-07-26T09:21:55.572Z,77.20
2022-07-26T09:24:37.902Z,77.90
2022-07-26T09:27:11.566Z,78.50
2022-07-26T09:29:57.427Z,78.40
2022-07-26T09:32:29.629Z,77.90
2022-07-26T09:35:45.327Z,78.20
2022-07-26T09:38:03.885Z,78.30
2022-07-26T09:40:37.787Z,79.50
2022-07-26T09:43:10.114Z,76.70
2022-07-26T09:45:48.301Z,76.50
2022-07-26T09:48:52.287Z,76.40
2022-07-26T09:54:10.328Z,67.40
2022-07-26T09:56:50.661Z,62.80
2022-07-26T09:59:23.912Z,58.10
2022-07-26T10:01:58.861Z,57.30
2022-07-26T10:04:30.276Z,57.10
2022-07-26T10:07:02.063Z,58.40
2022-07-26T10:09:41.351Z,60.50
2022-07-26T10:12:16.504Z,61.80
2022-07-26T10:14:51.346Z,64.20
2022-07-26T10:17:51.263Z,61.10
2022-07-26T10:20:50.934Z,56.50
2022-07-26T10:23:44.687Z,57.30
2022-07-26T10:26:46.435Z,54.10
2022-07-26T10:29:30.777Z,53.40
2022-07-26T10:32:20.334Z,54.20
2022-07-26T10:34:53.186Z,57.90
2022-07-26T10:37:30.517Z,59.40
2022-07-26T10:40:25.534Z,58.00
2022-07-26T10:42:55.619Z,59.20
2022-07-26T10:45:27.221Z,59.60
2022-07-26T10:48:18.583Z,58.50
2022-07-26T10:50:55.086Z,58.60
2022-07-26T10:53:28.437Z,57.50
2022-07-26T10:56:01.551Z,58.30
2022-07-26T10:58:44.838Z,58.00
2022-07-26T11:01:15.745Z,56.20
2022-07-26T11:03:46.858Z,55.90
2022-07-26T11:06:23.093Z,57.60
2022-07-26T11:08:53.230Z,59.60
2022-07-26T11:11:32.948Z,58.00
2022-07-26T11:14:12.736Z,59.80
2022-07-26T11:16:45.905Z,62.10
2022-07-26T11:19:18.322Z,59.40
2022-07-26T11:21:58.700Z,58.40
2022-07-26T11:24:29.250Z,58.80
2022-07-26T11:27:05.568Z,57.50
2022-07-26T11:29:40.274Z,56.60
2022-07-26T11:32:21.771Z,58.20
2022-07-26T11:35:01.748Z,58.80
2022-07-26T11:37:34.726Z,58.10
2022-07-26T11:40:04.825Z,58.10
2022-07-26T11:42:34.889Z,56.50
2022-07-26T11:45:04.995Z,57.30
2022-07-26T11:47:35.144Z,57.60
2022-07-26T11:50:22.714Z,57.30
2022-07-26T11:52:56.527Z,57.50
2022-07-26T11:55:31.266Z,56.80
2022-07-26T11:58:08.919Z,55.20
2022-07-26T12:00:39.716Z,55.60
2022-07-26T12:03:09.862Z,57.10
2022-07-26T12:05:41.859Z,56.60
2022-07-26T12:08:15.495Z,55.90
2022-07-26T12:10:45.616Z,54.70
2022-07-26T12:13:19.017Z,56.20
2022-07-26T12:15:51.172Z,56.60
2022-07-26T12:18:34.077Z,55.40
2022-07-26T12:21:09.279Z,55.40
2022-07-26T12:23:53.173Z,54.20
2022-07-26T12:26:25.389Z,54.00
2022-07-26T12:28:57.058Z,54.60
2022-07-26T12:31:29.572Z,54.30
2022-07-26T12:34:00.168Z,55.40
2022-07-26T12:36:30.872Z,56.50
2022-07-26T12:39:04.708Z,55.10
2022-07-26T12:41:37.835Z,53.80
2022-07-26T12:44:12.002Z,52.70
2022-07-26T12:46:45.099Z,53.10
2022-07-26T12:49:15.821Z,52.30
2022-07-26T12:51:45.926Z,52.30
2022-07-26T12:54:18.549Z,54.00
2022-07-26T12:56:48.718Z,53.50
2022-07-26T12:59:18.832Z,53.30
2022-07-26T13:01:49.040Z,52.40
2022-07-26T13:04:19.164Z,52.60
2022-07-26T13:06:49.179Z,54.60
2022-07-26T13:09:21.807Z,55.90
2022-07-26T13:11:51.996Z,56.00
2022-07-26T13:14:22.163Z,54.60
2022-07-26T13:16:52.314Z,54.20
2022-07-26T13:19:22.646Z,52.80
2022-07-26T13:21:53.212Z,52.60
2022-07-26T13:24:26.232Z,53.20
2022-07-26T13:26:57.742Z,52.80
2022-07-26T13:29:30.849Z,52.20
2022-07-26T13:32:01.996Z,52.00
2022-07-26T13:34:35.090Z,52.20
2022-07-26T13:37:08.230Z,53.60
2022-07-26T13:39:41.311Z,55.30
2022-07-26T13:42:11.464Z,53.40
2022-07-26T13:44:41.505Z,51.70
2022-07-26T13:47:11.562Z,51.70
2022-07-26T13:49:41.686Z,51.60
2022-07-26T13:52:15.684Z,50.30
2022-07-26T13:54:49.477Z,49.30
2022-07-26T13:57:19.585Z,49.00
2022-07-26T13:59:49.597Z,49.10
2022-07-26T14:02:19.797Z,50.00
2022-07-26T14:04:50.489Z,51.40
2022-07-26T14:07:20.467Z,53.30
2022-07-26T14:09:53.049Z,53.00
2022-07-26T14:12:23.352Z,54.10
2022-07-26T14:14:53.333Z,53.30
2022-07-26T14:17:23.328Z,51.50
2022-07-26T14:19:53.610Z,50.00
2022-07-26T14:22:23.732Z,49.90
2022-07-26T14:24:56.396Z,49.80
2022-07-26T14:27:26.584Z,49.30
2022-07-26T14:29:56.578Z,49.60
2022-07-26T14:32:26.603Z,48.30
2022-07-26T14:34:56.782Z,47.40
2022-07-26T14:37:41.465Z,46.30
2022-07-26T14:40:20.085Z,46.00
2022-07-26T14:42:50.233Z,47.30
2022-07-26T14:45:20.395Z,46.20
2022-07-26T14:47:50.563Z,46.00
2022-07-26T14:50:22.942Z,45.80
2022-07-26T14:52:53.442Z,46.20
2022-07-26T14:57:56.411Z,48.00
2022-07-26T15:00:26.555Z,49.00
2022-07-26T15:02:56.701Z,48.90
2022-07-26T15:05:27.881Z,47.60
2022-07-26T15:08:02.756Z,47.40
2022-07-26T15:10:38.254Z,47.70
2022-07-26T15:13:10.312Z,46.40
2022-07-26T15:15:40.275Z,46.10
2022-07-26T15:18:10.770Z,45.80
2022-07-26T15:20:42.693Z,44.50
2022-07-26T15:23:14.661Z,45.70
2022-07-26T15:25:48.698Z,45.50
2022-07-26T15:28:19.274Z,47.00
2022-07-26T15:30:49.375Z,47.30
2022-07-26T15:33:20.699Z,47.30
2022-07-26T15:35:53.235Z,48.40
2022-07-26T15:38:23.333Z,48.70
2022-07-26T15:40:56.050Z,48.50
2022-07-26T15:43:43.998Z,48.70
2022-07-26T15:46:19.699Z,47.70
2022-07-26T15:48:51.890Z,48.60
2022-07-26T15:51:24.835Z,49.80
2022-07-26T15:53:55.105Z,50.60
2022-07-26T15:56:27.912Z,50.60
2022-07-26T15:58:57.868Z,49.80
2022-07-26T16:01:28.050Z,49.30
2022-07-26T16:03:58.549Z,49.60
2022-07-26T16:06:28.570Z,49.30
2022-07-26T16:09:15.892Z,50.20
2022-07-26T16:11:49.646Z,50.50
2022-07-26T16:14:20.503Z,50.00
2022-07-26T16:16:51.184Z,50.70
2022-07-26T16:19:21.491Z,51.40
2022-07-26T16:21:51.587Z,52.80
2022-07-26T16:24:21.839Z,53.70
2022-07-26T16:26:54.732Z,53.20
2022-07-26T16:29:25.163Z,51.70
2022-07-26T16:31:56.270Z,51.60
2022-07-26T16:34:27.451Z,53.00
2022-07-26T16:36:57.535Z,53.90
2022-07-26T16:39:27.598Z,53.40
2022-07-26T16:42:04.706Z,52.00
2022-07-26T16:44:37.038Z,51.70
2022-07-26T16:47:07.379Z,51.10
2022-07-26T16:49:37.712Z,50.50
2022-07-26T16:52:09.477Z,50.60
2022-07-26T16:54:39.470Z,51.30
2022-07-26T16:57:12.327Z,53.10
2022-07-26T16:59:42.428Z,54.40
2022-07-26T17:02:12.631Z,55.50
2022-07-26T17:04:42.654Z,56.70
2022-07-26T17:07:25.191Z,57.60
2022-07-26T17:09:56.551Z,57.50
2022-07-26T17:12:29.643Z,56.40
2022-07-26T17:15:01.381Z,56.50
2022-07-26T17:17:31.521Z,56.90
2022-07-26T17:20:01.676Z,57.30
2022-07-26T17:22:31.876Z,58.00
2022-07-26T17:25:01.991Z,58.60
2022-07-26T17:27:35.545Z,59.20
2022-07-26T17:30:07.073Z,58.70
2022-07-26T17:32:38.121Z,57.70
2022-07-26T17:35:10.892Z,55.80
2022-07-26T17:37:40.942Z,54.60
2022-07-26T17:40:13.634Z,54.80
2022-07-26T17:42:48.970Z,54.50
2022-07-26T17:45:19.198Z,53.20
2022-07-26T17:47:49.206Z,53.10
2022-07-26T17:50:35.861Z,53.70
2022-07-26T17:53:07.447Z,54.50
2022-07-26T17:55:37.646Z,55.00
2022-07-26T17:58:10.243Z,55.90
2022-07-26T18:00:40.746Z,56.10
2022-07-26T18:03:11.194Z,56.20
2022-07-26T18:05:41.663Z,55.90
2022-07-26T18:08:11.704Z,55.90
2022-07-26T18:10:43.693Z,56.00
2022-07-26T18:13:19.001Z,56.10
2022-07-26T18:15:49.986Z,56.40
2022-07-26T18:18:20.233Z,56.60
2022-07-26T18:20:50.561Z,56.80
2022-07-26T18:23:20.648Z,57.90
2022-07-26T18:25:50.991Z,57.50
2022-07-26T18:28:23.702Z,57.50
2022-07-26T18:30:54.068Z,57.90
2022-07-26T18:33:24.106Z,58.90
2022-07-26T18:38:27.165Z,59.60
2022-07-26T18:40:57.576Z,61.70
2022-07-26T18:43:30.188Z,61.90
2022-07-26T18:46:05.571Z,63.00
2022-07-26T18:48:36.680Z,63.60
2022-07-26T18:51:11.670Z,64.20
2022-07-26T18:53:41.841Z,65.00
2022-07-26T18:56:11.885Z,65.50
2022-07-26T18:58:44.453Z,65.80
2022-07-26T19:01:14.656Z,66.20
2022-07-26T19:03:45.188Z,66.80
2022-07-26T19:06:15.314Z,67.40
2022-07-26T19:08:45.513Z,67.80
2022-07-26T19:11:15.496Z,68.50
2022-07-26T19:13:48.113Z,68.70
2022-07-26T19:16:18.994Z,68.80
2022-07-26T19:18:52.732Z,69.90
2022-07-26T19:21:25.722Z,68.60
2022-07-26T19:23:55.904Z,68.90
2022-07-26T19:26:27.593Z,69.10
2022-07-26T19:29:00.544Z,69.00
2022-07-26T19:31:30.702Z,69.20
2022-07-26T19:34:00.798Z,70.30
2022-07-26T19:36:30.810Z,70.80
2022-07-26T19:39:01.315Z,71.20
2022-07-26T19:41:31.485Z,71.00
2022-07-26T19:44:04.486Z,71.50
2022-07-26T19:46:35.733Z,71.80
2022-07-26T19:49:06.673Z,72.20
2022-07-26T19:51:36.715Z,73.10
2022-07-26T19:54:07.051Z,73.70
2022-07-26T19:56:41.829Z,74.70
2022-07-26T19:59:19.497Z,75.50
2022-07-26T20:01:56.619Z,76.10
2022-07-26T20:04:28.710Z,76.20
2022-07-26T20:06:58.773Z,76.50
2022-07-26T20:09:29.885Z,77.70
2022-07-26T20:12:01.032Z,78.40
2022-07-26T20:14:33.703Z,79.10
2022-07-26T20:17:03.778Z,80.00
2022-07-26T20:19:43.813Z,81.10
2022-07-26T20:22:14.326Z,81.60
2022-07-26T20:24:44.263Z,82.70
2022-07-26T20:27:14.246Z,84.10
2022-07-26T20:29:46.973Z,84.70
2022-07-26T20:32:17.265Z,84.90
2022-07-26T20:34:47.739Z,85.70
2022-07-26T20:37:17.742Z,86.40
2022-07-26T20:39:47.933Z,87.80
2022-07-26T20:42:21.629Z,88.40
2022-07-26T20:44:55.424Z,90.10
2022-07-26T20:47:25.509Z,90.70
2022-07-26T20:49:59.652Z,91.40
2022-07-26T20:52:32.782Z,91.70
2022-07-26T20:55:03.085Z,92.10
2022-07-26T20:57:33.133Z,92.60
2022-07-26T21:00:09.339Z,93.40
2022-07-26T21:02:39.781Z,93.60
2022-07-26T21:05:13.548Z,94.00
2022-07-26T21:07:59.575Z,94.20
2022-07-26T21:10:30.710Z,94.60
2022-07-26T21:13:01.115Z,95.00
2022-07-26T21:15:34.378Z,95.80
2022-07-26T21:18:04.546Z,95.90
2022-07-26T21:20:35.342Z,96.20
2022-07-26T21:25:30.886Z,97.80
2022-07-26T21:28:01.152Z,98.20
2022-07-26T21:30:33.826Z,98.70
2022-07-26T21:33:03.921Z,99.10
2022-07-26T21:35:35.457Z,99.90
2022-07-26T21:38:05.588Z,99.90
2022-07-26T21:40:35.797Z,99.80
2022-07-26T21:43:05.815Z,99.90
2022-07-26T21:45:38.461Z,99.90
2022-07-26T21:48:09.697Z,99.90
2022-07-26T21:50:39.695Z,99.90
2022-07-26T21:53:09.815Z,99.90
2022-07-26T21:55:39.796Z,99.90
2022-07-26T21:58:10.181Z,99.90
2022-07-26T22:00:43.340Z,99.90
2022-07-26T22:03:13.404Z,99.90
2022-07-26T22:05:45.346Z,99.90
2022-07-26T22:08:18.107Z,99.90
2022-07-26T22:10:48.383Z,99.90
2022-07-26T22:13:19.194Z,99.90
2022-07-26T22:15:52.245Z,99.90
2022-07-26T22:18:22.434Z,99.90
2022-07-26T22:20:52.929Z,99.90
2022-07-26T22:23:30.126Z,99.90
2022-07-26T22:26:01.942Z,99.90
2022-07-26T22:28:32.706Z,99.90
2022-07-26T22:31:05.303Z,99.90
2022-07-26T22:33:35.339Z,99.90
2022-07-26T22:36:05.286Z,99.90
2022-07-26T22:38:35.290Z,99.90
2022-07-26T22:41:05.281Z,99.90
2022-07-26T22:43:35.291Z,99.90
2022-07-26T22:46:07.901Z,99.90
2022-07-26T22:48:38.927Z,99.90
2022-07-26T22:51:09.886Z,99.90
2022-07-26T22:53:39.907Z,99.90
2022-07-26T22:56:09.885Z,99.90
2022-07-26T22:58:41.695Z,99.90
2022-07-26T23:01:16.653Z,99.90
2022-07-26T23:03:49.777Z,99.90
2022-07-26T23:06:31.601Z,99.90
2022-07-26T23:09:02.351Z,99.90
2022-07-26T23:11:32.915Z,99.90
2022-07-26T23:14:03.150Z,99.90
2022-07-26T23:16:35.805Z,99.90
2022-07-26T23:19:06.165Z,99.90
2022-07-26T23:21:36.363Z,99.90
2022-07-26T23:24:06.504Z,99.90
2022-07-26T23:26:36.489Z,99.90
2022-07-26T23:29:08.608Z,99.90
2022-07-26T23:31:42.224Z,99.90
2022-07-26T23:34:12.270Z,99.90
2022-07-26T23:36:42.209Z,99.90
2022-07-26T23:39:12.656Z,99.90
2022-07-26T23:41:43.086Z,99.90
2022-07-26T23:44:13.105Z,99.90
2022-07-26T23:47:03.440Z,99.90
2022-07-26T23:49:33.641Z,99.90
2022-07-26T23:52:03.718Z,99.90
2022-07-26T23:54:33.688Z,99.90
2022-07-26T23:57:18.571Z,99.90
2022-07-26T23:59:48.533Z,99.90
